Time;durP1;ratioP1;P1;durP2;ratioP2;P2;SDS_P1;SDS_P2;PMS_P1;PMS_P2;Temp;Humidity;BMP_temperature;BMP_pressure;BME280_temperature;BME280_humidity;BME280_pressure;Samples;Min_cycle;Max_cycle;Signal;HPM_P1;HPM_P2
2022/06/12 00:00:53;;;;;;;;;;;18.00;74.40;;;;;;5040930;28;89209;-46
2022/06/12 00:03:20;;;;;;;;;;;18.10;74.60;;;;;;5042305;28;88265;-46
2022/06/12 00:05:47;;;;;;;;;;;18.10;74.40;;;;;;5042089;27;87152;-46
2022/06/12 00:08:13;;;;;;;;;;;18.00;74.60;;;;;;5041758;28;88152;-47
2022/06/12 00:10:39;;;;;;;;;;;18.00;74.50;;;;;;5041269;28;86942;-46
2022/06/12 00:13:06;;;;;;;;;;;18.00;74.40;;;;;;5041711;27;87580;-46
2022/06/12 00:15:32;;;;;;;;;;;18.00;74.20;;;;;;5044530;28;88220;-46
2022/06/12 00:17:58;;;;;;;;;;;18.00;74.20;;;;;;5045913;28;86388;-46
2022/06/12 00:20:24;;;;;;;;;;;18.00;74.40;;;;;;5047497;27;88212;-47
2022/06/12 00:22:50;;;;;;;;;;;18.00;74.60;;;;;;5045171;28;87366;-48
2022/06/12 00:25:18;;;;;;;;;;;18.00;74.50;;;;;;5044398;28;87941;-46
2022/06/12 00:27:44;;;;;;;;;;;18.00;74.90;;;;;;5044804;28;88176;-47
2022/06/12 00:30:11;;;;;;;;;;;18.00;74.60;;;;;;5044842;28;87095;-45
2022/06/12 00:32:37;;;;;;;;;;;18.00;74.80;;;;;;5044876;27;89455;-47
2022/06/12 00:35:03;;;;;;;;;;;18.00;74.50;;;;;;5044652;28;88202;-46
2022/06/12 00:37:29;;;;;;;;;;;18.00;74.50;;;;;;5045059;28;87235;-48
2022/06/12 00:39:56;;;;;;;;;;;18.00;74.80;;;;;;5044448;27;88598;-45
2022/06/12 00:42:29;;;;;;;;;;;18.00;74.80;;;;;;5047619;28;88503;-46
2022/06/12 00:44:57;;;;;;;;;;;18.00;74.60;;;;;;5044497;27;86897;-48
2022/06/12 00:47:23;;;;;;;;;;;18.00;74.70;;;;;;5044545;28;88794;-46
2022/06/12 00:49:50;;;;;;;;;;;18.00;74.70;;;;;;5044192;28;87974;-45
2022/06/12 00:52:34;;;;;;;;;;;18.00;74.80;;;;;;5044616;27;88330;-45
2022/06/12 00:55:05;;;;;;;;;;;18.00;74.90;;;;;;5044455;27;87890;-47
2022/06/12 00:57:31;;;;;;;;;;;17.90;74.90;;;;;;5044759;28;86975;-46
2022/06/12 00:59:59;;;;;;;;;;;17.90;74.80;;;;;;5044657;28;87323;-46
2022/06/12 01:02:26;;;;;;;;;;;17.90;74.80;;;;;;5043983;28;88003;-46
2022/06/12 01:07:38;;;;;;;;;;;17.90;74.90;;;;;;5044697;28;86513;-46
2022/06/12 01:10:06;;;;;;;;;;;17.90;74.90;;;;;;5044359;28;87084;-49
2022/06/12 01:12:35;;;;;;;;;;;17.90;74.80;;;;;;5043642;27;88023;-46
2022/06/12 01:15:04;;;;;;;;;;;17.90;75.00;;;;;;5043288;28;88966;-46
2022/06/12 01:17:30;;;;;;;;;;;17.90;74.90;;;;;;5044244;28;87020;-46
2022/06/12 01:19:58;;;;;;;;;;;17.90;75.00;;;;;;5044185;28;87390;-46
2022/06/12 01:22:23;;;;;;;;;;;17.90;75.00;;;;;;5043649;28;88518;-46
2022/06/12 01:25:09;;;;;;;;;;;17.90;74.80;;;;;;5043718;27;87099;-48
2022/06/12 01:27:43;;;;;;;;;;;17.90;74.80;;;;;;5037870;28;88501;-47
2022/06/12 01:30:20;;;;;;;;;;;17.90;74.90;;;;;;5043767;28;87194;-45
2022/06/12 01:32:46;;;;;;;;;;;17.90;75.00;;;;;;5044656;27;86922;-46
2022/06/12 01:35:25;;;;;;;;;;;17.90;75.00;;;;;;5043586;28;87997;-46
2022/06/12 01:37:56;;;;;;;;;;;17.90;75.00;;;;;;5043704;28;87180;-46
2022/06/12 01:40:22;;;;;;;;;;;17.90;74.90;;;;;;5043246;28;87999;-46
2022/06/12 01:43:01;;;;;;;;;;;17.80;75.00;;;;;;5043572;28;87886;-48
2022/06/12 01:45:34;;;;;;;;;;;17.90;75.20;;;;;;5043758;28;87119;-48
2022/06/12 01:48:06;;;;;;;;;;;17.80;74.80;;;;;;5046542;27;87425;-46
2022/06/12 01:50:32;;;;;;;;;;;17.80;75.10;;;;;;5043514;28;87141;-46
2022/06/12 01:53:24;;;;;;;;;;;17.80;75.00;;;;;;5043969;27;87109;-46
2022/06/12 01:55:56;;;;;;;;;;;17.80;75.00;;;;;;5040938;28;88327;-46
2022/06/12 01:58:36;;;;;;;;;;;17.80;75.10;;;;;;5044362;28;86366;-46
2022/06/12 02:01:09;;;;;;;;;;;17.80;75.00;;;;;;5043653;28;87068;-45
2022/06/12 02:03:45;;;;;;;;;;;17.90;74.90;;;;;;5043266;28;87236;-46
2022/06/12 02:06:17;;;;;;;;;;;17.80;74.80;;;;;;5042667;28;88095;-48
2022/06/12 02:08:47;;;;;;;;;;;17.80;75.00;;;;;;5043459;27;89628;-48
2022/06/12 02:14:07;;;;;;;;;;;17.80;74.90;;;;;;5043387;28;86805;-46
2022/06/12 02:16:35;;;;;;;;;;;17.80;75.00;;;;;;5043041;28;88194;-46
2022/06/12 02:19:06;;;;;;;;;;;17.80;74.80;;;;;;5043367;28;87461;-46
2022/06/12 02:21:37;;;;;;;;;;;17.80;74.90;;;;;;5043310;27;87319;-46
2022/06/12 02:24:05;;;;;;;;;;;17.80;74.90;;;;;;5043209;28;88783;-46
2022/06/12 02:26:34;;;;;;;;;;;17.80;74.70;;;;;;5042774;28;87111;-47
2022/06/12 02:29:06;;;;;;;;;;;17.80;74.60;;;;;;5043250;27;87343;-45
2022/06/12 02:31:34;;;;;;;;;;;17.80;74.70;;;;;;5041981;28;90189;-49
2022/06/12 02:34:02;;;;;;;;;;;17.80;74.50;;;;;;5046012;28;87483;-45
2022/06/12 02:36:29;;;;;;;;;;;17.80;75.10;;;;;;5042029;27;89762;-46
2022/06/12 02:38:58;;;;;;;;;;;17.70;75.10;;;;;;5043041;28;87171;-47
2022/06/12 02:41:26;;;;;;;;;;;17.70;75.10;;;;;;5042906;28;87090;-46
2022/06/12 02:43:55;;;;;;;;;;;17.70;75.10;;;;;;5042844;28;86941;-47
2022/06/12 02:46:28;;;;;;;;;;;17.70;75.00;;;;;;5042937;28;87334;-46
2022/06/12 02:48:53;;;;;;;;;;;17.70;75.10;;;;;;5043295;27;87366;-46
2022/06/12 02:51:26;;;;;;;;;;;17.70;74.70;;;;;;5042538;28;87696;-45
2022/06/12 02:54:10;;;;;;;;;;;17.70;74.70;;;;;;5042793;28;86932;-48
2022/06/12 02:57:00;;;;;;;;;;;17.70;74.90;;;;;;5044984;27;88023;-46
2022/06/12 02:59:26;;;;;;;;;;;17.70;75.10;;;;;;5042863;28;86947;-47
2022/06/12 03:02:00;;;;;;;;;;;17.70;74.90;;;;;;5042837;28;87199;-47
2022/06/12 03:04:35;;;;;;;;;;;17.70;75.60;;;;;;5042486;28;88165;-47
2022/06/12 03:07:00;;;;;;;;;;;17.70;75.00;;;;;;5042892;28;88262;-46
2022/06/12 03:09:26;;;;;;;;;;;17.70;75.10;;;;;;5042630;28;87428;-48
2022/06/12 03:11:54;;;;;;;;;;;17.70;75.10;;;;;;5041802;28;88541;-46
2022/06/12 03:14:20;;;;;;;;;;;17.70;74.80;;;;;;5042981;28;86547;-47
2022/06/12 03:16:46;;;;;;;;;;;17.70;75.00;;;;;;5042312;28;87124;-48
2022/06/12 03:19:14;;;;;;;;;;;17.70;75.10;;;;;;5044979;28;88237;-49
2022/06/12 03:21:58;;;;;;;;;;;17.70;75.00;;;;;;5041720;27;88740;-46
2022/06/12 03:24:23;;;;;;;;;;;17.70;75.00;;;;;;5042279;27;88065;-47
2022/06/12 03:26:52;;;;;;;;;;;17.70;74.80;;;;;;5042555;28;87605;-48
2022/06/12 03:29:26;;;;;;;;;;;17.70;75.20;;;;;;5041829;27;88830;-46
2022/06/12 03:32:15;;;;;;;;;;;17.70;74.90;;;;;;5042058;28;88041;-47
2022/06/12 03:35:01;;;;;;;;;;;17.70;75.10;;;;;;5036289;28;87762;-46
2022/06/12 03:37:26;;;;;;;;;;;17.70;74.60;;;;;;5041759;28;87542;-47
2022/06/12 03:40:05;;;;;;;;;;;17.70;74.70;;;;;;5041919;28;87741;-47
2022/06/12 03:42:51;;;;;;;;;;;17.70;74.50;;;;;;5045154;28;87102;-46
2022/06/12 03:45:22;;;;;;;;;;;17.70;74.80;;;;;;5041749;28;88082;-46
2022/06/12 03:48:05;;;;;;;;;;;17.70;74.70;;;;;;5041563;27;87927;-48
2022/06/12 03:50:33;;;;;;;;;;;17.70;74.60;;;;;;5045500;28;88148;-46
2022/06/12 03:52:59;;;;;;;;;;;17.60;74.70;;;;;;5045298;28;88064;-49
2022/06/12 03:58:25;;;;;;;;;;;17.60;74.60;;;;;;5045732;28;86904;-48
2022/06/12 04:00:51;;;;;;;;;;;17.60;74.60;;;;;;5044874;28;88300;-46
2022/06/12 04:03:22;;;;;;;;;;;17.60;74.60;;;;;;5048548;28;87018;-47
2022/06/12 04:05:58;;;;;;;;;;;17.60;74.70;;;;;;5045474;28;88823;-48
2022/06/12 04:08:50;;;;;;;;;;;17.60;74.80;;;;;;5045708;28;86991;-47
2022/06/12 04:11:17;;;;;;;;;;;17.60;74.70;;;;;;5027531;27;87958;-46
2022/06/12 04:13:43;;;;;;;;;;;17.60;74.80;;;;;;5044414;28;89348;-45
2022/06/12 04:16:14;;;;;;;;;;;17.60;74.60;;;;;;5045379;28;87521;-47
2022/06/12 04:18:40;;;;;;;;;;;17.60;74.60;;;;;;5045351;28;87155;-46
2022/06/12 04:21:23;;;;;;;;;;;17.60;74.60;;;;;;5044906;28;87991;-46
2022/06/12 04:23:52;;;;;;;;;;;17.60;74.60;;;;;;5045057;28;88075;-46
2022/06/12 04:26:18;;;;;;;;;;;17.60;75.10;;;;;;5047677;28;87401;-46
2022/06/12 04:28:44;;;;;;;;;;;17.60;74.80;;;;;;5045229;28;87100;-47
2022/06/12 04:31:15;;;;;;;;;;;17.60;74.70;;;;;;5045522;27;86753;-48
2022/06/12 04:33:46;;;;;;;;;;;17.60;74.60;;;;;;5044801;28;87739;-47
2022/06/12 04:36:12;;;;;;;;;;;17.60;74.60;;;;;;5044843;28;87172;-46
2022/06/12 04:38:38;;;;;;;;;;;17.60;74.40;;;;;;5044413;27;88090;-46
2022/06/12 04:41:04;;;;;;;;;;;17.60;74.40;;;;;;5044486;28;87999;-46
2022/06/12 04:43:30;;;;;;;;;;;17.60;74.40;;;;;;5045120;28;87103;-46
2022/06/12 04:45:56;;;;;;;;;;;17.60;74.40;;;;;;5044780;27;86918;-46
2022/06/12 04:48:28;;;;;;;;;;;17.60;74.30;;;;;;5047464;28;88043;-47
2022/06/12 04:50:54;;;;;;;;;;;17.60;74.40;;;;;;5044447;28;87390;-46
2022/06/12 04:53:19;;;;;;;;;;;17.60;74.50;;;;;;5044236;28;87948;-47
2022/06/12 04:55:45;;;;;;;;;;;17.60;74.40;;;;;;5044985;28;86387;-47
2022/06/12 04:58:10;;;;;;;;;;;17.60;74.20;;;;;;5044832;28;87064;-47
2022/06/12 05:00:36;;;;;;;;;;;17.60;74.60;;;;;;5043592;27;89600;-46
2022/06/12 05:03:02;;;;;;;;;;;17.60;74.30;;;;;;5043942;28;88086;-46
2022/06/12 05:05:28;;;;;;;;;;;17.60;75.10;;;;;;5043935;28;88433;-46
2022/06/12 05:07:54;;;;;;;;;;;17.60;74.70;;;;;;5043925;28;89331;-46
2022/06/12 05:10:20;;;;;;;;;;;17.60;74.50;;;;;;5047124;28;87076;-46
2022/06/12 05:12:45;;;;;;;;;;;17.60;74.50;;;;;;5043459;28;89310;-46
2022/06/12 05:15:12;;;;;;;;;;;17.60;74.40;;;;;;5044294;28;87215;-47
2022/06/12 05:17:38;;;;;;;;;;;17.60;74.40;;;;;;5044195;27;88891;-46
2022/06/12 05:20:05;;;;;;;;;;;17.60;74.30;;;;;;5043952;28;88015;-49
2022/06/12 05:22:30;;;;;;;;;;;17.60;74.40;;;;;;5043802;28;87019;-46
2022/06/12 05:24:56;;;;;;;;;;;17.70;74.50;;;;;;5044238;28;87379;-47
2022/06/12 05:27:22;;;;;;;;;;;17.70;74.40;;;;;;5043318;28;89100;-46
2022/06/12 05:29:48;;;;;;;;;;;17.70;75.10;;;;;;5044074;28;87178;-49
2022/06/12 05:32:15;;;;;;;;;;;17.70;74.50;;;;;;5046482;27;89102;-47
2022/06/12 05:34:41;;;;;;;;;;;17.70;74.70;;;;;;5043832;28;87111;-46
2022/06/12 05:37:07;;;;;;;;;;;17.70;74.60;;;;;;5044204;27;87065;-47
2022/06/12 05:39:32;;;;;;;;;;;17.70;74.70;;;;;;5043858;28;88150;-49
2022/06/12 05:41:58;;;;;;;;;;;17.70;74.60;;;;;;5043835;28;87113;-46
2022/06/12 05:44:24;;;;;;;;;;;17.70;74.60;;;;;;5044351;27;87643;-46
2022/06/12 05:46:49;;;;;;;;;;;17.70;74.70;;;;;;5043196;28;89297;-49
2022/06/12 05:49:15;;;;;;;;;;;17.70;74.60;;;;;;5043722;28;87257;-46
2022/06/12 05:51:40;;;;;;;;;;;17.70;74.70;;;;;;5043207;28;87977;-48
2022/06/12 05:54:07;;;;;;;;;;;17.70;74.50;;;;;;5046507;28;88128;-47
2022/06/12 05:56:33;;;;;;;;;;;17.70;74.70;;;;;;5043688;28;88885;-46
2022/06/12 05:59:02;;;;;;;;;;;17.70;75.00;;;;;;5043065;27;89316;-46
2022/06/12 06:01:28;;;;;;;;;;;17.70;74.40;;;;;;5043298;28;87015;-47
2022/06/12 06:03:54;;;;;;;;;;;17.70;75.10;;;;;;5043684;27;87468;-46
2022/06/12 06:06:29;;;;;;;;;;;17.70;74.90;;;;;;5042864;28;87821;-45
2022/06/12 06:08:55;;;;;;;;;;;17.70;74.60;;;;;;5044020;28;86297;-47
2022/06/12 06:11:20;;;;;;;;;;;17.70;75.10;;;;;;5042455;27;87001;-48
2022/06/12 06:13:46;;;;;;;;;;;17.70;75.20;;;;;;5045920;28;88074;-46
2022/06/12 06:16:11;;;;;;;;;;;17.60;75.00;;;;;;5042630;27;88887;-46
2022/06/12 06:18:39;;;;;;;;;;;17.60;74.60;;;;;;5043093;28;88015;-47
2022/06/12 06:21:06;;;;;;;;;;;17.70;74.70;;;;;;5043447;28;87467;-47
2022/06/12 06:23:31;;;;;;;;;;;17.70;74.80;;;;;;5043296;27;87407;-48
2022/06/12 06:25:56;;;;;;;;;;;17.70;74.60;;;;;;5042953;28;88177;-45
2022/06/12 06:28:22;;;;;;;;;;;17.70;75.40;;;;;;5043278;28;87116;-46
2022/06/12 06:30:48;;;;;;;;;;;17.60;75.00;;;;;;5043341;27;86876;-46
2022/06/12 06:33:13;;;;;;;;;;;17.60;75.30;;;;;;5042966;28;87273;-46
2022/06/12 06:35:39;;;;;;;;;;;17.70;75.00;;;;;;5046297;28;87115;-46
2022/06/12 06:38:05;;;;;;;;;;;17.70;75.00;;;;;;5042819;28;89502;-46
2022/06/12 06:40:31;;;;;;;;;;;17.70;75.00;;;;;;5042395;28;88039;-47
2022/06/12 06:42:57;;;;;;;;;;;17.70;75.10;;;;;;5042738;27;88235;-48
2022/06/12 06:48:07;;;;;;;;;;;17.70;75.00;;;;;;5043049;28;86938;-46
2022/06/12 06:50:34;;;;;;;;;;;17.70;75.10;;;;;;5042606;27;88855;-49
2022/06/12 06:52:59;;;;;;;;;;;17.70;75.10;;;;;;5042400;28;88244;-48
2022/06/12 06:55:25;;;;;;;;;;;17.70;75.00;;;;;;5041419;28;87288;-47
2022/06/12 06:57:51;;;;;;;;;;;17.70;75.20;;;;;;5045819;27;87368;-48
2022/06/12 07:00:19;;;;;;;;;;;17.70;75.20;;;;;;5042601;28;87097;-49
2022/06/12 07:02:44;;;;;;;;;;;17.70;75.20;;;;;;5042506;27;89320;-48
2022/06/12 07:05:10;;;;;;;;;;;17.70;75.20;;;;;;5041869;28;88941;-46
2022/06/12 07:07:36;;;;;;;;;;;17.70;75.10;;;;;;5042742;28;87068;-49
2022/06/12 07:10:03;;;;;;;;;;;17.70;75.30;;;;;;5042664;27;87911;-50
2022/06/12 07:12:28;;;;;;;;;;;17.70;75.30;;;;;;5041560;28;88128;-48
2022/06/12 07:14:54;;;;;;;;;;;17.70;75.30;;;;;;5042602;28;87113;-48
2022/06/12 07:17:19;;;;;;;;;;;17.70;75.10;;;;;;5042655;27;87301;-46
2022/06/12 07:19:45;;;;;;;;;;;17.70;75.40;;;;;;5045175;28;88183;-48
2022/06/12 07:22:10;;;;;;;;;;;17.70;75.30;;;;;;5043099;28;87651;-48
2022/06/12 07:24:36;;;;;;;;;;;17.70;75.30;;;;;;5044144;27;88102;-48
2022/06/12 07:27:03;;;;;;;;;;;17.70;75.40;;;;;;5046044;28;86993;-46
2022/06/12 07:29:29;;;;;;;;;;;17.70;75.50;;;;;;5045202;27;89118;-49
2022/06/12 07:31:54;;;;;;;;;;;17.70;76.00;;;;;;5045342;28;88188;-47
2022/06/12 07:34:20;;;;;;;;;;;17.70;75.30;;;;;;5045633;28;87130;-48
2022/06/12 07:36:47;;;;;;;;;;;17.70;75.60;;;;;;5046011;28;87126;-50
2022/06/12 07:39:14;;;;;;;;;;;17.70;75.60;;;;;;5045223;28;89650;-47
2022/06/12 07:41:40;;;;;;;;;;;17.70;75.70;;;;;;5048741;28;88610;-46
2022/06/12 07:44:06;;;;;;;;;;;17.70;75.60;;;;;;5045340;28;87899;-47
2022/06/12 07:46:32;;;;;;;;;;;17.70;75.60;;;;;;5045559;28;86436;-46
2022/06/12 07:48:58;;;;;;;;;;;17.70;75.90;;;;;;5045830;27;87298;-48
2022/06/12 07:51:24;;;;;;;;;;;17.70;75.70;;;;;;5045481;28;88063;-48
2022/06/12 07:53:50;;;;;;;;;;;17.70;75.80;;;;;;5044879;28;87840;-48
2022/06/12 07:56:16;;;;;;;;;;;17.70;75.60;;;;;;5045738;27;88363;-47
2022/06/12 07:58:45;;;;;;;;;;;17.70;75.70;;;;;;5045354;28;88106;-45
2022/06/12 08:01:11;;;;;;;;;;;17.70;75.80;;;;;;5045358;28;87140;-48
2022/06/12 08:03:37;;;;;;;;;;;17.70;75.80;;;;;;5048191;27;87406;-46
2022/06/12 08:06:03;;;;;;;;;;;17.70;76.10;;;;;;5045616;28;87146;-46
2022/06/12 08:08:29;;;;;;;;;;;17.70;75.70;;;;;;5045302;28;89016;-48
2022/06/12 08:10:54;;;;;;;;;;;17.70;76.20;;;;;;5045287;28;87303;-47
2022/06/12 08:13:20;;;;;;;;;;;17.70;75.90;;;;;;5045881;28;88028;-47
2022/06/12 08:15:47;;;;;;;;;;;17.70;75.80;;;;;;5044895;27;88832;-47
2022/06/12 08:18:13;;;;;;;;;;;17.70;76.10;;;;;;5044125;28;89419;-48
2022/06/12 08:20:40;;;;;;;;;;;17.70;75.80;;;;;;5045133;28;87141;-49
2022/06/12 08:23:26;;;;;;;;;;;17.70;75.90;;;;;;5047447;28;89220;-47
2022/06/12 08:25:56;;;;;;;;;;;17.70;76.20;;;;;;5044971;28;87023;-46
2022/06/12 08:28:22;;;;;;;;;;;17.70;76.10;;;;;;5045179;27;87605;-47
2022/06/12 08:30:48;;;;;;;;;;;17.70;76.20;;;;;;5044807;28;88008;-47
2022/06/12 08:33:13;;;;;;;;;;;17.70;76.10;;;;;;5045339;28;87210;-47
2022/06/12 08:35:39;;;;;;;;;;;17.70;76.10;;;;;;5045101;27;87391;-47
2022/06/12 08:38:05;;;;;;;;;;;17.70;76.20;;;;;;5044550;28;89687;-47
2022/06/12 08:40:35;;;;;;;;;;;17.70;76.10;;;;;;5044931;28;87015;-48
2022/06/12 08:43:08;;;;;;;;;;;17.70;76.30;;;;;;5044070;27;88010;-46
2022/06/12 08:45:38;;;;;;;;;;;17.70;75.80;;;;;;5047251;28;89291;-46
2022/06/12 08:48:12;;;;;;;;;;;17.70;75.90;;;;;;5044692;27;87205;-46
2022/06/12 08:50:42;;;;;;;;;;;17.70;76.10;;;;;;5044587;28;87968;-46
2022/06/12 08:53:08;;;;;;;;;;;17.70;76.30;;;;;;5044689;28;87110;-48
2022/06/12 08:55:43;;;;;;;;;;;17.70;76.40;;;;;;5044514;28;87510;-46
2022/06/12 08:58:08;;;;;;;;;;;17.70;76.40;;;;;;5044050;28;88654;-45
2022/06/12 09:00:38;;;;;;;;;;;17.70;76.30;;;;;;5045124;28;86361;-47
2022/06/12 09:03:08;;;;;;;;;;;17.70;76.50;;;;;;5044506;27;87087;-46
2022/06/12 09:05:56;;;;;;;;;;;17.70;76.30;;;;;;5044046;28;89446;-47
2022/06/12 09:08:27;;;;;;;;;;;17.70;76.60;;;;;;5046738;28;88079;-46
2022/06/12 09:10:58;;;;;;;;;;;17.70;76.40;;;;;;5043292;28;88366;-47
2022/06/12 09:13:29;;;;;;;;;;;17.70;76.60;;;;;;5044575;28;86997;-46
2022/06/12 09:15:55;;;;;;;;;;;17.70;76.80;;;;;;5044264;28;87538;-46
2022/06/12 09:18:20;;;;;;;;;;;17.70;76.90;;;;;;5043656;28;88494;-47
2022/06/12 09:20:46;;;;;;;;;;;17.70;76.50;;;;;;5044463;28;87107;-49
2022/06/12 09:23:11;;;;;;;;;;;17.80;76.50;;;;;;5044178;28;87524;-48
2022/06/12 09:25:42;;;;;;;;;;;17.80;76.60;;;;;;5044540;28;87022;-48
2022/06/12 09:28:13;;;;;;;;;;;17.80;76.50;;;;;;5044182;28;87103;-46
2022/06/12 09:30:45;;;;;;;;;;;17.80;76.20;;;;;;5046971;27;87541;-50
2022/06/12 09:33:22;;;;;;;;;;;17.80;76.20;;;;;;5043104;28;88143;-47
2022/06/12 09:35:49;;;;;;;;;;;17.80;76.40;;;;;;5044267;28;88333;-45
2022/06/12 09:38:21;;;;;;;;;;;17.80;76.50;;;;;;5043770;28;87854;-48
2022/06/12 09:40:52;;;;;;;;;;;17.80;76.60;;;;;;5044217;28;87098;-50
2022/06/12 09:43:36;;;;;;;;;;;17.80;76.30;;;;;;5044133;28;86929;-47
2022/06/12 09:46:17;;;;;;;;;;;17.80;76.50;;;;;;5042820;28;87986;-46
2022/06/12 09:48:53;;;;;;;;;;;17.90;76.30;;;;;;5043701;28;87170;-47
2022/06/12 09:51:28;;;;;;;;;;;17.90;77.10;;;;;;5044556;28;87510;-46
2022/06/12 09:53:57;;;;;;;;;;;17.90;76.70;;;;;;5046405;28;88023;-46
2022/06/12 09:56:31;;;;;;;;;;;17.90;76.70;;;;;;5043802;28;87425;-45
2022/06/12 09:59:02;;;;;;;;;;;17.80;76.60;;;;;;5042760;28;89005;-47
2022/06/12 10:01:30;;;;;;;;;;;17.80;76.80;;;;;;5043500;28;87113;-50
2022/06/12 10:03:56;;;;;;;;;;;17.80;76.50;;;;;;5043627;27;87295;-48
2022/06/12 10:06:24;;;;;;;;;;;17.80;76.70;;;;;;5043335;28;87964;-47
2022/06/12 10:08:59;;;;;;;;;;;17.80;76.30;;;;;;5043238;28;87031;-46
2022/06/12 10:11:31;;;;;;;;;;;17.70;77.10;;;;;;5042764;27;89723;-47
2022/06/12 10:14:03;;;;;;;;;;;17.80;77.20;;;;;;5043331;28;87966;-47
2022/06/12 10:16:37;;;;;;;;;;;17.80;76.80;;;;;;5046881;28;86237;-48
2022/06/12 10:19:06;;;;;;;;;;;17.80;77.00;;;;;;5042943;28;88001;-47
2022/06/12 10:21:33;;;;;;;;;;;17.80;77.00;;;;;;5043102;28;87475;-47
2022/06/12 10:24:01;;;;;;;;;;;17.80;77.00;;;;;;5042696;27;87942;-47
2022/06/12 10:26:28;;;;;;;;;;;17.80;76.80;;;;;;5042806;28;89364;-46
2022/06/12 10:29:02;;;;;;;;;;;17.80;77.70;;;;;;5043349;28;87068;-47
2022/06/12 10:31:29;;;;;;;;;;;17.80;77.70;;;;;;5042985;28;87037;-47
2022/06/12 10:34:03;;;;;;;;;;;17.80;77.30;;;;;;5042590;27;89240;-47
2022/06/12 10:36:30;;;;;;;;;;;17.90;77.40;;;;;;5046093;28;87104;-48
2022/06/12 10:39:22;;;;;;;;;;;17.90;77.40;;;;;;5042527;28;88126;-46
2022/06/12 10:41:47;;;;;;;;;;;17.80;77.40;;;;;;5038590;28;86364;-48
2022/06/12 10:44:26;;;;;;;;;;;17.80;76.60;;;;;;5042893;28;87004;-48
2022/06/12 10:46:52;;;;;;;;;;;17.80;77.40;;;;;;5042538;28;87801;-46
2022/06/12 10:49:18;;;;;;;;;;;17.80;77.70;;;;;;5042242;28;88029;-46
2022/06/12 10:51:45;;;;;;;;;;;17.80;77.10;;;;;;5042986;27;88241;-46
2022/06/12 10:54:16;;;;;;;;;;;17.80;77.50;;;;;;5042312;28;87903;-46
2022/06/12 10:56:42;;;;;;;;;;;17.90;76.70;;;;;;5042792;28;86971;-48
2022/06/12 10:59:10;;;;;;;;;;;17.90;77.20;;;;;;5045221;28;87431;-47
2022/06/12 11:01:38;;;;;;;;;;;17.80;77.50;;;;;;5042980;28;87005;-49
2022/06/12 11:04:22;;;;;;;;;;;17.80;77.00;;;;;;5042932;28;87353;-48
2022/06/12 11:07:05;;;;;;;;;;;17.80;77.00;;;;;;5043036;28;87201;-46
2022/06/12 11:09:43;;;;;;;;;;;17.90;77.30;;;;;;5042466;28;87576;-48
2022/06/12 11:12:08;;;;;;;;;;;17.90;77.00;;;;;;5042190;28;87369;-48
2022/06/12 11:14:34;;;;;;;;;;;17.80;77.10;;;;;;5041649;28;89073;-47
2022/06/12 11:16:59;;;;;;;;;;;17.90;76.90;;;;;;5042760;28;86803;-49
2022/06/12 11:19:44;;;;;;;;;;;17.90;77.90;;;;;;5042682;28;87445;-50
2022/06/12 11:22:12;;;;;;;;;;;17.90;77.20;;;;;;5045143;27;87108;-49
2022/06/12 11:24:56;;;;;;;;;;;17.90;77.10;;;;;;5042617;28;87848;-49
2022/06/12 11:27:45;;;;;;;;;;;17.90;77.70;;;;;;5042585;27;88487;-48
2022/06/12 11:30:21;;;;;;;;;;;17.90;77.80;;;;;;5036017;28;87209;-47
2022/06/12 11:32:57;;;;;;;;;;;17.90;77.80;;;;;;5042742;27;88330;-47
2022/06/12 11:35:22;;;;;;;;;;;17.90;77.70;;;;;;5042387;28;88133;-49
2022/06/12 11:37:48;;;;;;;;;;;17.90;77.70;;;;;;5042289;28;87093;-46
2022/06/12 11:40:19;;;;;;;;;;;17.90;77.80;;;;;;5041824;28;87880;-46
2022/06/12 11:43:03;;;;;;;;;;;17.90;78.00;;;;;;5041575;28;87843;-48
2022/06/12 11:45:45;;;;;;;;;;;17.90;78.30;;;;;;5045289;27;87105;-49
2022/06/12 11:48:29;;;;;;;;;;;17.90;78.30;;;;;;5041414;28;88691;-49
2022/06/12 11:51:01;;;;;;;;;;;17.90;78.20;;;;;;5042369;27;87196;-48
2022/06/12 11:54:05;;;;;;;;;;;18.00;78.10;;;;;;5042202;28;88301;-48
2022/06/12 11:56:31;;;;;;;;;;;17.90;78.20;;;;;;4999303;28;87995;-47
2022/06/12 11:59:25;;;;;;;;;;;18.00;78.20;;;;;;5000338;28;86497;-49
2022/06/12 12:02:11;;;;;;;;;;;18.00;78.70;;;;;;4979438;27;87174;-48
2022/06/12 12:04:37;;;;;;;;;;;18.00;78.30;;;;;;5041465;28;89315;-48
2022/06/12 12:07:02;;;;;;;;;;;18.00;78.80;;;;;;5041419;28;88032;-48
2022/06/12 12:09:27;;;;;;;;;;;18.00;78.80;;;;;;5044862;27;87505;-47
2022/06/12 12:11:55;;;;;;;;;;;18.00;78.70;;;;;;5044608;28;87119;-46
2022/06/12 12:14:23;;;;;;;;;;;18.00;78.80;;;;;;5045539;27;87302;-48
2022/06/12 12:16:53;;;;;;;;;;;18.00;78.70;;;;;;5044820;28;87877;-46
2022/06/12 12:19:27;;;;;;;;;;;18.00;78.80;;;;;;5044889;28;87109;-48
2022/06/12 12:21:55;;;;;;;;;;;18.00;78.70;;;;;;5045490;28;87433;-48
2022/06/12 12:24:35;;;;;;;;;;;18.00;78.10;;;;;;5045206;28;87527;-48
2022/06/12 12:27:03;;;;;;;;;;;18.10;77.90;;;;;;5045497;28;87177;-46
2022/06/12 12:29:31;;;;;;;;;;;18.10;77.70;;;;;;5047808;28;87505;-49
2022/06/12 12:31:57;;;;;;;;;;;18.20;77.80;;;;;;5044438;28;88038;-47
2022/06/12 12:34:25;;;;;;;;;;;18.20;77.50;;;;;;5045119;28;88323;-47
2022/06/12 12:42:24;;;;;;;;;;;18.20;77.60;;;;;;5044937;28;87048;-48
2022/06/12 12:44:50;;;;;;;;;;;18.20;77.90;;;;;;5044118;28;89375;-50
2022/06/12 12:47:17;;;;;;;;;;;18.20;77.80;;;;;;5044332;28;87687;-47
2022/06/12 12:49:43;;;;;;;;;;;18.20;77.50;;;;;;5044970;27;88806;-47
2022/06/12 12:52:14;;;;;;;;;;;18.20;77.50;;;;;;5047527;28;87178;-48
2022/06/12 12:54:58;;;;;;;;;;;18.20;77.90;;;;;;5044672;28;88841;-48
2022/06/12 12:57:35;;;;;;;;;;;18.20;77.60;;;;;;5043940;28;89037;-49
2022/06/12 13:00:00;;;;;;;;;;;18.20;77.50;;;;;;5044296;28;87106;-48
2022/06/12 13:02:26;;;;;;;;;;;18.20;77.40;;;;;;5044680;27;87641;-46
2022/06/12 13:04:53;;;;;;;;;;;18.30;78.10;;;;;;5044434;28;87238;-48
2022/06/12 13:07:38;;;;;;;;;;;18.30;78.00;;;;;;5044526;28;87001;-51
2022/06/12 13:10:04;;;;;;;;;;;18.20;77.50;;;;;;5044560;27;87277;-49
2022/06/12 13:12:41;;;;;;;;;;;18.20;77.40;;;;;;5043526;28;88624;-51
2022/06/12 13:15:16;;;;;;;;;;;18.30;77.70;;;;;;5047750;28;86495;-49
2022/06/12 13:17:50;;;;;;;;;;;18.20;77.50;;;;;;5044254;28;87655;-49
2022/06/12 13:20:31;;;;;;;;;;;18.20;77.50;;;;;;5044536;28;86967;-46
2022/06/12 13:23:02;;;;;;;;;;;18.30;78.00;;;;;;5043504;28;87870;-48
2022/06/12 13:25:37;;;;;;;;;;;18.30;77.60;;;;;;5043862;28;87902;-47
2022/06/12 13:28:03;;;;;;;;;;;18.30;77.70;;;;;;5044237;28;87107;-45
2022/06/12 13:30:31;;;;;;;;;;;18.30;77.50;;;;;;5044302;27;87358;-49
2022/06/12 13:33:10;;;;;;;;;;;18.30;77.80;;;;;;5043450;28;90046;-47
2022/06/12 13:35:56;;;;;;;;;;;18.30;78.10;;;;;;5043891;28;87095;-49
2022/06/12 13:38:21;;;;;;;;;;;18.30;77.40;;;;;;5024126;27;87749;-47
2022/06/12 13:40:54;;;;;;;;;;;18.30;77.60;;;;;;5044313;28;86241;-50
2022/06/12 13:43:22;;;;;;;;;;;18.40;77.80;;;;;;5044088;28;87009;-48
2022/06/12 13:45:56;;;;;;;;;;;18.40;77.50;;;;;;5043430;28;89502;-47
2022/06/12 13:48:23;;;;;;;;;;;18.40;77.50;;;;;;5043102;28;88069;-48
2022/06/12 13:50:52;;;;;;;;;;;18.30;77.90;;;;;;5043872;28;88397;-47
2022/06/12 13:53:18;;;;;;;;;;;18.30;78.40;;;;;;5043356;28;88331;-46
2022/06/12 13:55:55;;;;;;;;;;;18.20;78.70;;;;;;5042364;28;87502;-48
2022/06/12 13:58:26;;;;;;;;;;;18.20;78.90;;;;;;5043621;28;88670;-48
2022/06/12 14:00:56;;;;;;;;;;;18.20;79.10;;;;;;5046379;28;88404;-47
2022/06/12 14:03:25;;;;;;;;;;;18.20;78.70;;;;;;5043594;27;87369;-49
2022/06/12 14:05:54;;;;;;;;;;;18.30;78.00;;;;;;5043518;28;88652;-47
2022/06/12 14:08:19;;;;;;;;;;;18.40;78.00;;;;;;5043336;28;87155;-47
2022/06/12 14:10:46;;;;;;;;;;;18.40;77.50;;;;;;5043332;27;87584;-46
2022/06/12 14:13:16;;;;;;;;;;;18.40;77.90;;;;;;5042176;28;90508;-48
2022/06/12 14:15:42;;;;;;;;;;;18.40;77.60;;;;;;5043367;28;87256;-47
2022/06/12 14:18:21;;;;;;;;;;;18.40;77.50;;;;;;5043643;28;87417;-49
2022/06/12 14:20:57;;;;;;;;;;;18.40;77.50;;;;;;5042919;27;89530;-48
2022/06/12 14:23:28;;;;;;;;;;;18.40;78.00;;;;;;5046294;28;86957;-47
2022/06/12 14:26:15;;;;;;;;;;;18.40;77.70;;;;;;5042759;28;89463;-47
2022/06/12 14:28:40;;;;;;;;;;;18.40;77.80;;;;;;5034828;28;88759;-48
2022/06/12 14:31:06;;;;;;;;;;;18.40;77.70;;;;;;5043992;27;87566;-47
2022/06/12 14:33:40;;;;;;;;;;;18.40;78.40;;;;;;5042432;27;88009;-50
2022/06/12 14:36:07;;;;;;;;;;;18.40;77.70;;;;;;5042817;28;87102;-47
2022/06/12 14:38:34;;;;;;;;;;;18.40;78.70;;;;;;5042670;28;87914;-46
2022/06/12 14:41:00;;;;;;;;;;;18.40;78.20;;;;;;5042641;28;88273;-47
2022/06/12 14:43:30;;;;;;;;;;;18.40;78.50;;;;;;5046010;28;87163;-47
2022/06/12 14:46:10;;;;;;;;;;;18.40;77.70;;;;;;5042525;28;89576;-46
2022/06/12 14:48:35;;;;;;;;;;;18.50;78.10;;;;;;5042919;28;86821;-46